Time;durP1;ratioP1;P1;durP2;ratioP2;P2;SDS_P1;SDS_P2;PMS_P1;PMS_P2;Temp;Humidity;BMP_temperature;BMP_pressure;BME280_temperature;BME280_humidity;BME280_pressure;Samples;Min_cycle;Max_cycle;Signal;HPM_P1;HPM_P2
2021/07/16 00:02:23;;;;;;;9.07;4.50;;;23.00;67.00;;;;;;5105860;28;20216;-61
2021/07/16 00:04:54;;;;;;;7.40;4.30;;;23.00;67.00;;;;;;5107496;28;20576;-61
2021/07/16 00:07:25;;;;;;;4.50;4.03;;;23.00;66.90;;;;;;5110907;28;20499;-61
2021/07/16 00:10:00;;;;;;;8.07;4.37;;;23.10;66.90;;;;;;5106616;28;20647;-61
2021/07/16 00:12:30;;;;;;;8.23;4.43;;;23.00;66.60;;;;;;5111470;28;20598;-61
2021/07/16 00:15:21;;;;;;;5.10;4.03;;;23.00;66.60;;;;;;5112425;28;20212;-61
2021/07/16 00:17:53;;;;;;;8.43;4.80;;;23.00;66.60;;;;;;5108076;28;20826;-61
2021/07/16 00:20:25;;;;;;;5.90;4.00;;;23.00;66.30;;;;;;5108819;28;20193;-61
2021/07/16 00:22:55;;;;;;;7.53;4.40;;;23.00;66.40;;;;;;5120607;27;20215;-61
2021/07/16 00:25:23;;;;;;;6.70;4.40;;;23.00;66.60;;;;;;5104382;28;20210;-60
2021/07/16 00:27:52;;;;;;;6.03;3.83;;;23.00;66.80;;;;;;5094927;28;20196;-60
2021/07/16 00:30:23;;;;;;;5.97;4.00;;;23.00;66.90;;;;;;5100364;28;20212;-61
2021/07/16 00:32:53;;;;;;;7.30;4.10;;;23.00;66.70;;;;;;5097505;28;20201;-61
2021/07/16 00:35:21;;;;;;;5.03;3.90;;;23.00;67.00;;;;;;5090502;28;20219;-61
2021/07/16 00:37:53;;;;;;;6.07;4.30;;;23.10;67.10;;;;;;5098520;27;20243;-61
2021/07/16 00:40:30;;;;;;;5.47;3.90;;;23.00;66.70;;;;;;5095658;28;20208;-61
2021/07/16 00:43:02;;;;;;;7.00;4.20;;;23.10;66.70;;;;;;5104752;28;20192;-61
2021/07/16 00:45:37;;;;;;;6.00;3.63;;;23.00;66.70;;;;;;5101732;28;20882;-61
2021/07/16 00:48:07;;;;;;;6.80;4.27;;;23.00;66.70;;;;;;5100870;28;20219;-61
2021/07/16 00:50:39;;;;;;;6.80;4.07;;;23.10;66.60;;;;;;5094788;28;20212;-61
2021/07/16 00:53:17;;;;;;;7.47;3.97;;;23.00;66.70;;;;;;5087141;28;20208;-61
2021/07/16 00:55:49;;;;;;;7.83;4.13;;;23.10;66.70;;;;;;5098901;28;20206;-61
2021/07/16 00:58:20;;;;;;;6.77;3.93;;;23.10;66.40;;;;;;5107570;28;20230;-61
2021/07/16 01:00:49;;;;;;;6.33;3.93;;;23.00;66.30;;;;;;5102549;28;20207;-61
2021/07/16 01:03:21;;;;;;;5.27;3.63;;;23.10;66.50;;;;;;5102365;28;20630;-61
2021/07/16 01:05:52;;;;;;;6.83;3.93;;;23.00;66.20;;;;;;5088908;28;20204;-61
2021/07/16 01:08:23;;;;;;;5.20;3.60;;;23.00;66.20;;;;;;5095493;28;20254;-61
2021/07/16 01:10:53;;;;;;;6.17;3.97;;;23.00;66.10;;;;;;5095930;28;20887;-61
2021/07/16 01:13:23;;;;;;;6.23;4.17;;;23.00;66.20;;;;;;5096206;28;20224;-61
2021/07/16 01:15:55;;;;;;;7.90;4.23;;;23.00;66.00;;;;;;5101464;28;20633;-61
2021/07/16 01:18:27;;;;;;;6.07;4.17;;;23.00;66.00;;;;;;5103149;28;20302;-61
2021/07/16 01:21:25;;;;;;;8.70;3.93;;;23.00;65.70;;;;;;5099618;28;20664;-61
2021/07/16 01:23:55;;;;;;;8.93;4.37;;;23.00;66.50;;;;;;5099191;28;20220;-61
2021/07/16 01:26:25;;;;;;;4.60;3.77;;;22.90;65.80;;;;;;5097244;28;20208;-61
2021/07/16 01:28:59;;;;;;;5.97;4.00;;;22.90;66.70;;;;;;5101598;28;20232;-61
2021/07/16 01:31:32;;;;;;;5.53;4.17;;;23.00;66.10;;;;;;5096512;28;20199;-61
2021/07/16 01:34:07;;;;;;;6.60;4.17;;;23.00;66.10;;;;;;5103389;28;20194;-61
2021/07/16 01:36:38;;;;;;;8.10;4.23;;;23.00;66.00;;;;;;5108034;28;20199;-61
2021/07/16 01:39:07;;;;;;;4.60;3.63;;;23.00;66.20;;;;;;5102608;28;20203;-61
2021/07/16 01:41:37;;;;;;;5.03;3.40;;;23.00;66.20;;;;;;5101558;28;20246;-61
2021/07/16 01:44:09;;;;;;;5.10;3.93;;;23.00;65.90;;;;;;5096470;28;20204;-61
2021/07/16 01:46:39;;;;;;;6.53;3.63;;;23.00;66.10;;;;;;5105541;28;20188;-61
2021/07/16 01:49:11;;;;;;;7.30;3.70;;;23.00;65.80;;;;;;5121762;27;20214;-61
2021/07/16 01:51:41;;;;;;;5.70;4.00;;;23.00;66.00;;;;;;5102502;28;20433;-61
2021/07/16 01:54:12;;;;;;;5.20;3.67;;;23.00;66.00;;;;;;5100234;28;20617;-61
2021/07/16 01:56:41;;;;;;;4.57;3.90;;;23.00;65.90;;;;;;5102846;28;20197;-61
2021/07/16 01:59:23;;;;;;;5.30;3.60;;;23.00;65.90;;;;;;5104320;28;20271;-61
2021/07/16 02:01:51;;;;;;;6.30;3.87;;;23.00;66.10;;;;;;5103931;28;20193;-61
2021/07/16 02:04:24;;;;;;;4.63;3.57;;;23.00;66.00;;;;;;5107183;28;20257;-61
2021/07/16 02:06:52;;;;;;;5.57;3.63;;;23.00;65.50;;;;;;5108301;28;20189;-61
2021/07/16 02:09:23;;;;;;;7.17;3.70;;;23.00;65.60;;;;;;5108093;28;20236;-61
2021/07/16 02:11:58;;;;;;;6.30;4.33;;;23.00;66.00;;;;;;5102536;28;20189;-61
2021/07/16 02:14:28;;;;;;;5.00;3.60;;;23.00;66.10;;;;;;5109430;28;20208;-60
2021/07/16 02:17:02;;;;;;;4.37;3.23;;;23.00;66.10;;;;;;5104540;28;20596;-61
2021/07/16 02:19:35;;;;;;;4.63;3.30;;;23.00;66.10;;;;;;5105509;28;20273;-61
2021/07/16 02:22:06;;;;;;;5.23;3.93;;;23.00;66.00;;;;;;5098842;28;20195;-61
2021/07/16 02:24:36;;;;;;;4.17;3.63;;;23.00;66.20;;;;;;5101197;28;20654;-61
2021/07/16 02:27:07;;;;;;;5.30;3.40;;;23.00;66.00;;;;;;5109904;28;20192;-61
2021/07/16 02:29:37;;;;;;;6.63;3.70;;;23.00;66.20;;;;;;5102142;28;20209;-61
2021/07/16 02:32:07;;;;;;;5.60;3.97;;;23.00;66.30;;;;;;5096092;28;20197;-61
2021/07/16 02:34:39;;;;;;;5.23;3.90;;;23.10;66.30;;;;;;5100771;28;20211;-61
2021/07/16 02:37:12;;;;;;;6.63;3.77;;;23.10;66.20;;;;;;5107820;28;20220;-61
2021/07/16 02:39:41;;;;;;;4.33;3.77;;;23.10;66.20;;;;;;5106204;28;20192;-61
2021/07/16 02:42:14;;;;;;;5.50;3.43;;;23.10;66.20;;;;;;5109415;28;20197;-61
2021/07/16 02:44:45;;;;;;;5.60;3.77;;;23.10;66.80;;;;;;5100802;28;20197;-61
2021/07/16 02:47:16;;;;;;;4.13;3.73;;;23.10;66.20;;;;;;5106875;27;20212;-61
2021/07/16 02:49:49;;;;;;;4.83;3.40;;;23.10;66.20;;;;;;5105685;28;20204;-61
2021/07/16 02:52:19;;;;;;;4.23;3.20;;;23.10;66.20;;;;;;5102175;27;20821;-61
2021/07/16 02:54:50;;;;;;;8.17;3.47;;;23.10;66.20;;;;;;5106691;28;20208;-61
2021/07/16 02:57:22;;;;;;;4.43;3.30;;;23.10;66.10;;;;;;5107205;28;20220;-61
2021/07/16 02:59:51;;;;;;;4.43;3.70;;;23.10;66.00;;;;;;5107954;28;20688;-61
2021/07/16 03:02:26;;;;;;;3.87;3.20;;;23.10;66.00;;;;;;5101529;28;20193;-61
2021/07/16 03:04:57;;;;;;;5.60;3.60;;;23.10;66.10;;;;;;5099111;28;20200;-61
2021/07/16 03:07:30;;;;;;;4.83;3.67;;;23.10;66.00;;;;;;5102571;28;20495;-61
2021/07/16 03:10:00;;;;;;;6.63;3.47;;;23.10;65.90;;;;;;5095664;28;20232;-61
2021/07/16 03:12:33;;;;;;;6.07;3.80;;;23.10;66.00;;;;;;5098637;28;20205;-61
2021/07/16 03:15:11;;;;;;;5.10;3.87;;;23.10;65.80;;;;;;5091929;28;20197;-61
2021/07/16 03:17:39;;;;;;;5.87;4.20;;;23.10;65.70;;;;;;5103070;28;20218;-61
2021/07/16 03:20:27;;;;;;;8.07;4.00;;;23.00;65.30;;;;;;5110470;28;20196;-61
2021/07/16 03:23:01;;;;;;;5.20;3.53;;;23.10;65.50;;;;;;5103886;28;20181;-61
2021/07/16 03:25:31;;;;;;;4.77;3.60;;;23.10;65.70;;;;;;5099955;28;20224;-61
2021/07/16 03:28:06;;;;;;;5.23;3.80;;;23.10;65.90;;;;;;5106591;27;20203;-61
2021/07/16 03:30:34;;;;;;;5.93;3.87;;;23.10;65.70;;;;;;5120423;27;20209;-61
2021/07/16 03:33:08;;;;;;;3.80;3.27;;;23.10;65.80;;;;;;5103242;28;20569;-61
2021/07/16 03:35:39;;;;;;;5.07;3.57;;;23.10;65.90;;;;;;5101083;28;20201;-61
2021/07/16 03:38:12;;;;;;;7.13;4.10;;;23.10;65.90;;;;;;5109469;28;20216;-61
2021/07/16 03:40:52;;;;;;;4.53;3.87;;;23.10;65.90;;;;;;5102273;28;20265;-61
2021/07/16 03:43:24;;;;;;;4.53;4.10;;;23.10;65.90;;;;;;5104438;28;20208;-61
2021/07/16 03:45:56;;;;;;;5.43;4.13;;;23.10;65.90;;;;;;5104983;28;20216;-60
2021/07/16 03:48:27;;;;;;;6.40;3.63;;;23.10;65.80;;;;;;5102253;28;20216;-61
2021/07/16 03:50:58;;;;;;;4.57;3.83;;;23.10;65.80;;;;;;5104410;28;20652;-61
2021/07/16 03:53:29;;;;;;;5.73;4.20;;;23.10;65.70;;;;;;5096996;28;20220;-61
2021/07/16 03:56:11;;;;;;;6.30;3.90;;;23.10;65.70;;;;;;5104844;28;20470;-61
2021/07/16 03:58:42;;;;;;;5.63;3.80;;;23.10;65.70;;;;;;5099712;28;20205;-61
2021/07/16 04:01:16;;;;;;;4.63;3.67;;;23.10;65.70;;;;;;5106113;28;20205;-61
2021/07/16 04:03:46;;;;;;;5.70;4.00;;;23.10;65.70;;;;;;5087181;28;20197;-60
2021/07/16 04:06:17;;;;;;;5.50;4.13;;;23.10;65.70;;;;;;5110994;28;20173;-60
2021/07/16 04:08:59;;;;;;;5.97;3.93;;;23.10;65.60;;;;;;5094875;28;20207;-60
2021/07/16 04:11:32;;;;;;;5.47;3.70;;;23.10;65.40;;;;;;5110417;28;20437;-61
2021/07/16 04:14:04;;;;;;;6.70;4.60;;;23.10;65.40;;;;;;5094654;28;20280;-61
2021/07/16 04:16:35;;;;;;;7.57;4.07;;;23.10;65.20;;;;;;5113708;28;20192;-60
2021/07/16 04:19:06;;;;;;;7.07;5.00;;;23.10;65.20;;;;;;5100917;28;20219;-61
2021/07/16 04:21:38;;;;;;;7.07;4.43;;;23.10;65.20;;;;;;5110168;28;20205;-61
2021/07/16 04:24:07;;;;;;;7.10;4.03;;;23.10;65.20;;;;;;5090039;28;20626;-62
2021/07/16 04:26:35;;;;;;;5.33;4.10;;;23.10;65.10;;;;;;5102427;28;20189;-61
2021/07/16 04:29:07;;;;;;;5.43;4.10;;;23.10;65.10;;;;;;5100775;28;20189;-61
2021/07/16 04:31:39;;;;;;;6.67;4.40;;;23.10;65.20;;;;;;5099691;28;20200;-61
2021/07/16 04:34:10;;;;;;;7.07;4.43;;;23.10;64.90;;;;;;5097471;28;20188;-61
2021/07/16 04:36:43;;;;;;;7.33;4.60;;;23.10;64.40;;;;;;5105044;28;20620;-61
2021/07/16 04:39:12;;;;;;;5.73;4.23;;;23.00;64.70;;;;;;5103238;28;20224;-61
2021/07/16 04:41:42;;;;;;;6.07;4.63;;;23.10;65.10;;;;;;5097370;28;20203;-61
2021/07/16 04:44:13;;;;;;;8.23;4.87;;;23.00;65.20;;;;;;5103830;28;20188;-61
2021/07/16 04:46:41;;;;;;;8.37;4.93;;;23.10;65.10;;;;;;5101451;28;20206;-61
2021/07/16 04:49:10;;;;;;;8.13;4.97;;;23.00;64.70;;;;;;5100280;28;20793;-61
2021/07/16 04:51:40;;;;;;;8.80;4.53;;;23.00;64.80;;;;;;5102809;28;20571;-61
2021/07/16 04:54:10;;;;;;;6.57;4.37;;;23.00;65.20;;;;;;5098185;28;20815;-61
2021/07/16 04:56:43;;;;;;;7.70;4.57;;;23.00;65.10;;;;;;5104882;28;20652;-62
2021/07/16 04:59:15;;;;;;;5.67;4.47;;;23.00;64.90;;;;;;5103617;27;20223;-62
2021/07/16 05:01:48;;;;;;;10.80;5.00;;;23.00;64.80;;;;;;5102059;28;20197;-61
2021/07/16 05:04:18;;;;;;;7.63;4.73;;;23.00;65.00;;;;;;5103409;28;20274;-61
2021/07/16 05:06:50;;;;;;;6.97;4.57;;;23.00;65.10;;;;;;5103171;28;20230;-61
2021/07/16 05:09:23;;;;;;;11.70;5.07;;;23.00;65.20;;;;;;5098176;28;20230;-61
2021/07/16 05:11:54;;;;;;;7.83;5.00;;;23.00;65.00;;;;;;5082123;28;20608;-61
2021/07/16 05:14:27;;;;;;;10.83;5.53;;;23.00;65.20;;;;;;5098634;28;20273;-61
2021/07/16 05:16:56;;;;;;;47.93;17.73;;;23.00;65.60;;;;;;5103623;28;20206;-61
2021/07/16 05:19:27;;;;;;;55.97;19.77;;;23.10;65.80;;;;;;5102993;28;20224;-61
2021/07/16 05:21:57;;;;;;;47.47;17.63;;;23.00;66.10;;;;;;5099096;28;20204;-61
2021/07/16 05:24:28;;;;;;;52.73;18.00;;;23.00;65.00;;;;;;5090499;28;20209;-61
2021/07/16 05:27:00;;;;;;;44.03;16.27;;;23.10;65.00;;;;;;5102753;28;20215;-61
2021/07/16 05:29:30;;;;;;;43.50;15.17;;;23.00;65.00;;;;;;5097705;28;20722;-61
2021/07/16 05:32:00;;;;;;;40.83;14.00;;;23.00;65.00;;;;;;5098792;28;20216;-61
2021/07/16 05:34:30;;;;;;;29.67;12.23;;;23.00;65.00;;;;;;5087952;28;20212;-61
2021/07/16 05:37:03;;;;;;;26.57;10.57;;;23.00;64.70;;;;;;5098725;28;20208;-61
2021/07/16 05:39:32;;;;;;;20.13;10.03;;;23.00;64.80;;;;;;5100093;28;20243;-61
2021/07/16 05:42:07;;;;;;;20.40;9.03;;;23.00;64.20;;;;;;5094068;28;20570;-61
2021/07/16 05:44:35;;;;;;;17.97;7.37;;;23.00;64.50;;;;;;5101717;28;20208;-60
2021/07/16 05:47:05;;;;;;;15.97;6.40;;;23.00;64.70;;;;;;5102579;28;20219;-61
2021/07/16 05:49:35;;;;;;;13.57;6.97;;;23.00;64.50;;;;;;5103066;28;20249;-61
2021/07/16 05:52:07;;;;;;;15.33;6.57;;;23.00;64.00;;;;;;5100629;28;20226;-61
2021/07/16 05:54:37;;;;;;;13.70;6.30;;;23.00;63.80;;;;;;5108505;28;20192;-61
2021/07/16 05:57:05;;;;;;;16.07;6.07;;;23.00;63.70;;;;;;5085132;28;20232;-62
2021/07/16 05:59:33;;;;;;;12.03;5.53;;;23.00;63.90;;;;;;5092798;28;20231;-63
2021/07/16 06:02:03;;;;;;;10.30;5.10;;;23.00;64.20;;;;;;5100612;28;20547;-63
2021/07/16 06:04:46;;;;;;;8.93;5.43;;;23.10;64.20;;;;;;5095727;28;20275;-63
2021/07/16 06:07:17;;;;;;;9.80;4.57;;;23.10;64.30;;;;;;5101628;28;20207;-62
2021/07/16 06:09:48;;;;;;;12.90;5.23;;;23.10;63.80;;;;;;5101341;28;20211;-62
2021/07/16 06:12:18;;;;;;;9.50;5.00;;;23.10;63.40;;;;;;5097901;28;20208;-62
2021/07/16 06:14:47;;;;;;;9.00;4.30;;;23.10;63.40;;;;;;5088850;28;20201;-64
2021/07/16 06:17:15;;;;;;;8.57;4.33;;;23.20;63.50;;;;;;5098772;28;20216;-60
2021/07/16 06:19:43;;;;;;;11.53;5.00;;;23.20;64.00;;;;;;5093539;28;20586;-60
2021/07/16 06:22:13;;;;;;;11.97;4.60;;;23.20;62.90;;;;;;5105021;28;20736;-61
2021/07/16 06:24:44;;;;;;;10.43;5.00;;;23.20;62.50;;;;;;5110015;28;20253;-61
2021/07/16 06:27:16;;;;;;;7.53;4.27;;;23.10;62.20;;;;;;5102495;28;20296;-60
2021/07/16 06:29:49;;;;;;;7.47;4.20;;;23.20;62.50;;;;;;5108827;28;20201;-62
2021/07/16 06:32:20;;;;;;;16.37;6.87;;;23.20;62.90;;;;;;5102236;28;20196;-64
2021/07/16 06:34:50;;;;;;;29.10;8.53;;;23.20;63.60;;;;;;5108651;28;20201;-63
2021/07/16 06:37:36;;;;;;;20.50;7.53;;;23.30;63.60;;;;;;5099567;28;20281;-64
2021/07/16 06:40:08;;;;;;;17.90;6.93;;;23.30;63.60;;;;;;5107128;28;20265;-64
2021/07/16 06:42:41;;;;;;;14.97;6.23;;;23.30;63.30;;;;;;5107507;28;20528;-64
2021/07/16 06:45:10;;;;;;;20.27;6.03;;;23.40;62.90;;;;;;5103191;27;20215;-61
2021/07/16 06:47:43;;;;;;;17.00;6.80;;;23.40;63.30;;;;;;5110411;28;20196;-62
2021/07/16 06:50:13;;;;;;;16.53;6.20;;;23.40;63.20;;;;;;5101776;28;21102;-62
2021/07/16 06:52:43;;;;;;;18.27;6.20;;;23.40;63.00;;;;;;5095974;28;20195;-61
2021/07/16 06:55:15;;;;;;;19.53;6.33;;;23.30;62.80;;;;;;5107168;28;20200;-62
2021/07/16 06:57:46;;;;;;;15.57;5.57;;;23.40;62.30;;;;;;5090642;28;20201;-65
2021/07/16 07:00:17;;;;;;;16.60;5.80;;;23.40;62.60;;;;;;5103060;28;20205;-64
2021/07/16 07:02:48;;;;;;;15.67;5.57;;;23.40;62.60;;;;;;5094022;28;20200;-64
2021/07/16 07:05:20;;;;;;;10.33;4.43;;;23.40;62.40;;;;;;5107029;28;20193;-65
2021/07/16 07:07:50;;;;;;;13.00;5.10;;;23.50;62.60;;;;;;5084803;28;20201;-64
2021/07/16 07:10:18;;;;;;;16.70;5.00;;;23.50;62.70;;;;;;5096825;28;20261;-64
2021/07/16 07:13:06;;;;;;;10.33;4.27;;;23.60;61.80;;;;;;5094952;28;20210;-64
2021/07/16 07:15:39;;;;;;;12.57;4.57;;;23.60;61.40;;;;;;5099000;28;20197;-64
2021/07/16 07:18:20;;;;;;;12.63;4.67;;;23.60;61.70;;;;;;5095729;28;20244;-64
2021/07/16 07:20:49;;;;;;;10.20;4.30;;;23.70;61.80;;;;;;5100601;27;20189;-67
2021/07/16 07:23:22;;;;;;;11.83;4.10;;;23.70;61.60;;;;;;5109086;28;20216;-66
2021/07/16 07:25:52;;;;;;;9.40;3.87;;;23.80;61.60;;;;;;5105805;28;20192;-64
2021/07/16 07:28:24;;;;;;;11.63;4.43;;;23.80;61.30;;;;;;5099518;28;20239;-65
2021/07/16 07:30:52;;;;;;;10.30;4.50;;;23.80;61.10;;;;;;5099087;28;20208;-65
2021/07/16 07:33:24;;;;;;;10.53;4.10;;;23.90;61.30;;;;;;5106867;28;20257;-65
2021/07/16 07:35:56;;;;;;;6.93;3.50;;;23.90;61.40;;;;;;5107200;28;20735;-65
2021/07/16 07:38:26;;;;;;;7.93;3.83;;;24.00;61.60;;;;;;5103956;28;20295;-65
2021/07/16 07:40:57;;;;;;;8.20;3.77;;;24.00;61.80;;;;;;5107350;28;20184;-64
2021/07/16 07:43:26;;;;;;;8.17;3.40;;;24.00;61.30;;;;;;5103548;28;20225;-64
2021/07/16 07:45:58;;;;;;;8.73;4.03;;;24.10;61.20;;;;;;5102884;28;20204;-65
2021/07/16 07:48:27;;;;;;;12.87;4.23;;;24.10;60.90;;;;;;5101128;28;20205;-65
2021/07/16 07:50:59;;;;;;;7.13;3.90;;;24.10;60.80;;;;;;5107644;28;20272;-64
2021/07/16 07:53:31;;;;;;;8.13;3.67;;;24.10;60.50;;;;;;5104382;28;20204;-65
2021/07/16 07:56:13;;;;;;;8.77;3.63;;;24.10;60.60;;;;;;5105543;28;20286;-64
2021/07/16 07:58:45;;;;;;;11.00;4.33;;;24.20;60.50;;;;;;5101429;28;20200;-64
2021/07/16 08:01:14;;;;;;;6.97;3.53;;;24.20;59.70;;;;;;5109484;28;20354;-65
2021/07/16 08:03:44;;;;;;;11.00;4.00;;;24.20;59.50;;;;;;5106501;28;20232;-65
2021/07/16 08:06:15;;;;;;;13.60;4.60;;;24.10;58.90;;;;;;5102993;28;20527;-65
2021/07/16 08:08:46;;;;;;;9.40;3.87;;;24.10;58.60;;;;;;5099103;28;20223;-65
2021/07/16 08:11:16;;;;;;;9.80;3.80;;;24.20;59.00;;;;;;5104219;28;20635;-65
2021/07/16 08:13:48;;;;;;;11.60;4.10;;;24.20;58.90;;;;;;5105133;28;20223;-65
2021/07/16 08:16:19;;;;;;;8.30;2.97;;;24.20;59.10;;;;;;5106200;28;20209;-66
2021/07/16 08:18:50;;;;;;;10.67;3.80;;;24.20;59.20;;;;;;5100495;28;20228;-66
2021/07/16 08:21:32;;;;;;;10.97;3.73;;;24.20;58.40;;;;;;5106773;28;20200;-64
2021/07/16 08:24:06;;;;;;;11.63;4.17;;;24.20;58.10;;;;;;5103808;28;20253;-63
2021/07/16 08:26:37;;;;;;;11.90;4.13;;;24.20;58.10;;;;;;5106391;28;20192;-64
2021/07/16 08:29:06;;;;;;;12.03;4.30;;;24.20;57.90;;;;;;5101488;28;20208;-63
2021/07/16 08:31:42;;;;;;;11.63;4.17;;;24.30;58.50;;;;;;5093447;27;20221;-65
2021/07/16 08:34:17;;;;;;;13.27;4.17;;;24.30;57.90;;;;;;5089031;28;20587;-64
2021/07/16 08:36:47;;;;;;;12.50;4.37;;;24.30;57.40;;;;;;5098606;28;20679;-66
2021/07/16 08:39:15;;;;;;;7.47;3.73;;;24.30;58.10;;;;;;5098178;28;20226;-66
2021/07/16 08:41:43;;;;;;;12.67;3.97;;;24.30;58.20;;;;;;5095414;28;20209;-64
2021/07/16 08:44:15;;;;;;;11.57;4.20;;;24.40;58.70;;;;;;5100182;28;20249;-64
2021/07/16 08:46:53;;;;;;;7.10;3.50;;;24.40;58.80;;;;;;5098985;28;20207;-65
2021/07/16 08:49:26;;;;;;;10.43;3.80;;;24.40;59.10;;;;;;5103518;28;20192;-65
2021/07/16 08:51:56;;;;;;;9.30;3.70;;;24.50;59.30;;;;;;5097064;28;20191;-65
2021/07/16 08:54:30;;;;;;;8.40;3.20;;;24.50;59.30;;;;;;5098105;28;20203;-66
2021/07/16 08:56:59;;;;;;;8.63;3.63;;;24.60;59.20;;;;;;5095500;28;20553;-63
2021/07/16 08:59:27;;;;;;;10.17;4.33;;;24.60;59.60;;;;;;5101431;28;20221;-65
2021/07/16 09:02:01;;;;;;;7.90;3.77;;;24.60;59.30;;;;;;5095886;28;20634;-64
2021/07/16 09:04:39;;;;;;;9.27;4.00;;;24.60;59.00;;;;;;5089976;28;20681;-65
2021/07/16 09:07:09;;;;;;;9.40;3.40;;;24.70;59.00;;;;;;5094989;27;20209;-65
2021/07/16 09:09:48;;;;;;;8.67;3.73;;;24.70;58.90;;;;;;5092031;28;20208;-64
2021/07/16 09:12:19;;;;;;;6.30;3.30;;;24.70;59.10;;;;;;5088382;28;20236;-64
2021/07/16 09:14:56;;;;;;;8.73;3.60;;;24.70;59.10;;;;;;5099135;28;20220;-65
2021/07/16 09:17:28;;;;;;;7.20;3.40;;;24.70;59.40;;;;;;5090076;28;20193;-65
2021/07/16 09:19:56;;;;;;;7.60;3.63;;;24.70;58.90;;;;;;5095019;27;20246;-66
2021/07/16 09:22:33;;;;;;;11.17;4.10;;;24.70;58.50;;;;;;5097289;28;20208;-64
2021/07/16 09:25:07;;;;;;;9.00;4.10;;;24.70;58.60;;;;;;5094309;28;20192;-64
2021/07/16 09:27:49;;;;;;;9.13;4.33;;;24.60;58.20;;;;;;5096706;28;20775;-64
2021/07/16 09:30:38;;;;;;;9.30;3.30;;;24.60;58.50;;;;;;5091115;28;20216;-63
2021/07/16 09:33:10;;;;;;;9.53;3.80;;;24.60;59.20;;;;;;5097844;28;20192;-63
2021/07/16 09:35:45;;;;;;;10.33;3.77;;;24.50;58.70;;;;;;5098553;28;20227;-63
2021/07/16 09:38:18;;;;;;;8.47;3.97;;;24.50;58.70;;;;;;5100201;28;20193;-64
2021/07/16 09:40:55;;;;;;;7.60;3.50;;;24.40;58.70;;;;;;5093698;28;20221;-64
2021/07/16 09:43:28;;;;;;;12.60;4.57;;;24.40;58.30;;;;;;5101844;28;20217;-64
2021/07/16 09:46:07;;;;;;;9.23;4.10;;;24.30;57.80;;;;;;5099715;28;20208;-64
2021/07/16 09:48:41;;;;;;;12.57;4.40;;;24.20;58.00;;;;;;5090834;28;20188;-64
2021/07/16 09:51:26;;;;;;;15.13;4.53;;;24.20;58.00;;;;;;5091291;28;20268;-64
2021/07/16 09:54:11;;;;;;;13.13;4.90;;;24.20;58.00;;;;;;5101536;28;20200;-64
2021/07/16 09:56:38;;;;;;;10.63;4.23;;;24.10;58.40;;;;;;5092846;28;20201;-63
2021/07/16 09:59:17;;;;;;;11.30;4.13;;;24.10;58.30;;;;;;5102663;28;20294;-63
2021/07/16 10:01:49;;;;;;;9.73;4.20;;;24.10;58.80;;;;;;5094399;28;20269;-63
2021/07/16 10:04:23;;;;;;;12.03;4.60;;;24.00;58.50;;;;;;5093456;28;20216;-63
2021/07/16 10:06:55;;;;;;;11.20;3.97;;;24.00;58.90;;;;;;5089826;28;20269;-65
2021/07/16 10:09:25;;;;;;;8.00;3.57;;;24.00;59.00;;;;;;5096790;27;20209;-64
2021/07/16 10:11:57;;;;;;;10.17;4.03;;;24.00;59.50;;;;;;5102034;28;20707;-67
2021/07/16 10:14:35;;;;;;;9.13;4.17;;;24.10;59.30;;;;;;5100193;28;20626;-65
2021/07/16 10:17:06;;;;;;;10.23;4.03;;;24.10;59.30;;;;;;5106416;28;20696;-65
2021/07/16 10:19:38;;;;;;;12.33;4.73;;;24.10;59.30;;;;;;5099755;28;20239;-63
2021/07/16 10:22:09;;;;;;;13.63;5.13;;;24.10;59.10;;;;;;5100492;28;20218;-63
2021/07/16 10:24:41;;;;;;;12.90;4.37;;;24.10;58.70;;;;;;5099551;28;20191;-63
2021/07/16 10:27:21;;;;;;;9.83;4.47;;;24.10;58.60;;;;;;5101479;28;20208;-63
2021/07/16 10:30:26;;;;;;;14.53;4.60;;;24.10;58.80;;;;;;5098388;28;20193;-63
2021/07/16 10:33:00;;;;;;;15.83;5.10;;;24.00;59.30;;;;;;5098489;28;20217;-64
2021/07/16 10:35:40;;;;;;;14.03;4.47;;;24.00;58.50;;;;;;5100795;28;20203;-63
2021/07/16 10:38:33;;;;;;;10.47;4.50;;;24.00;58.50;;;;;;5093353;28;20299;-63
2021/07/16 10:41:04;;;;;;;14.13;5.17;;;23.90;58.60;;;;;;5096477;28;20224;-64
2021/07/16 10:43:40;;;;;;;14.97;4.47;;;23.90;58.70;;;;;;5100446;28;20685;-64
2021/07/16 10:46:44;;;;;;;15.00;4.67;;;23.90;58.50;;;;;;5099179;28;20207;-63
2021/07/16 10:49:20;;;;;;;15.23;4.60;;;23.80;58.40;;;;;;5075759;28;20228;-63
2021/07/16 10:52:06;;;;;;;11.10;4.30;;;23.70;58.50;;;;;;5101194;28;20275;-63
2021/07/16 10:54:49;;;;;;;13.07;5.37;;;23.70;58.60;;;;;;5093101;28;20193;-64
2021/07/16 10:57:16;;;;;;;13.03;4.47;;;23.70;58.80;;;;;;5098724;28;20221;-63
2021/07/16 10:59:50;;;;;;;14.83;4.97;;;23.70;59.00;;;;;;5101961;28;20208;-63
2021/07/16 11:02:45;;;;;;;15.17;4.47;;;23.70;59.00;;;;;;5096836;28;20669;-64
2021/07/16 11:05:41;;;;;;;11.77;3.97;;;23.70;59.10;;;;;;5107404;28;20196;-64
2021/07/16 11:08:39;;;;;;;15.30;5.40;;;23.70;59.60;;;;;;5104279;28;20196;-64
2021/07/16 11:11:17;;;;;;;10.27;4.47;;;23.70;59.30;;;;;;5092261;28;20733;-63
2021/07/16 11:14:00;;;;;;;14.50;5.00;;;23.60;59.30;;;;;;5103766;28;20257;-63
2021/07/16 11:16:31;;;;;;;15.27;5.10;;;23.60;59.30;;;;;;5082922;28;20251;-66
2021/07/16 11:19:22;;;;;;;9.50;4.87;;;23.60;60.00;;;;;;5097503;28;20652;-64
2021/07/16 11:22:01;;;;;;;16.20;4.77;;;23.60;60.10;;;;;;5100136;28;20205;-64
2021/07/16 11:24:32;;;;;;;14.00;4.80;;;23.70;60.40;;;;;;5101730;28;20196;-63
2021/07/16 11:27:18;;;;;;;13.23;4.53;;;23.80;60.10;;;;;;5095989;28;20204;-66
2021/07/16 11:29:51;;;;;;;11.13;4.00;;;23.80;60.30;;;;;;5102464;28;20287;-64
2021/07/16 11:32:28;;;;;;;14.13;4.83;;;23.90;60.70;;;;;;5094717;28;20821;-64
2021/07/16 11:35:20;;;;;;;12.67;4.83;;;23.90;60.50;;;;;;5102798;28;20543;-62
2021/07/16 11:37:52;;;;;;;11.67;4.10;;;23.90;60.60;;;;;;5097426;28;20224;-67
2021/07/16 11:40:28;;;;;;;11.33;4.60;;;24.00;60.80;;;;;;5097611;28;20230;-64
2021/07/16 11:43:13;;;;;;;9.53;3.90;;;24.00;61.00;;;;;;5088789;28;20524;-64
2021/07/16 11:45:44;;;;;;;17.37;4.40;;;24.10;61.10;;;;;;5096418;28;20224;-63
2021/07/16 11:48:21;;;;;;;11.80;3.90;;;24.10;60.90;;;;;;5105859;28;20219;-63
2021/07/16 11:50:49;;;;;;;13.43;4.60;;;24.20;60.60;;;;;;5096097;28;20837;-64
2021/07/16 11:53:23;;;;;;;13.83;4.83;;;24.20;60.50;;;;;;5099795;28;20598;-65
2021/07/16 11:56:10;;;;;;;12.43;4.33;;;24.30;60.20;;;;;;5098879;28;20201;-64
2021/07/16 11:58:48;;;;;;;14.57;4.60;;;24.30;60.20;;;;;;5092680;28;20208;-65
2021/07/16 12:01:17;;;;;;;12.33;4.97;;;24.30;59.50;;;;;;5101329;28;20267;-65
2021/07/16 12:03:47;;;;;;;13.73;4.90;;;24.30;59.50;;;;;;5107806;28;20223;-66
2021/07/16 12:06:19;;;;;;;11.77;4.50;;;24.40;59.40;;;;;;5095000;28;20203;-64
2021/07/16 12:08:51;;;;;;;13.67;4.77;;;24.40;59.20;;;;;;5100435;28;20189;-66
2021/07/16 12:11:23;;;;;;;18.13;5.57;;;24.40;59.50;;;;;;5105241;28;20240;-65
2021/07/16 12:14:01;;;;;;;14.20;5.00;;;24.40;58.30;;;;;;5105396;28;20196;-66
2021/07/16 12:16:32;;;;;;;14.33;5.60;;;24.30;58.40;;;;;;5109102;27;20223;-64
2021/07/16 12:19:10;;;;;;;16.17;5.67;;;24.30;58.80;;;;;;5099909;28;20299;-63
2021/07/16 12:21:45;;;;;;;13.23;5.20;;;24.30;58.60;;;;;;5106261;28;20201;-63
2021/07/16 12:24:14;;;;;;;14.50;5.00;;;24.30;59.30;;;;;;5103667;28;20211;-64
2021/07/16 12:26:45;;;;;;;13.57;5.40;;;24.30;60.60;;;;;;5096120;28;20205;-64
2021/07/16 12:29:16;;;;;;;11.27;4.83;;;24.30;61.00;;;;;;5099731;28;20204;-65
2021/07/16 12:31:51;;;;;;;13.43;4.40;;;24.30;60.60;;;;;;5101519;28;20184;-65
2021/07/16 12:34:26;;;;;;;12.23;4.80;;;24.30;62.30;;;;;;5088427;28;20448;-64
2021/07/16 12:37:16;;;;;;;14.67;5.27;;;24.30;61.50;;;;;;5096610;28;20189;-64
2021/07/16 12:40:03;;;;;;;15.43;5.17;;;24.30;59.70;;;;;;5103587;28;20215;-64
2021/07/16 12:42:38;;;;;;;16.00;4.70;;;24.40;59.30;;;;;;5092418;28;20606;-65
2021/07/16 12:45:11;;;;;;;14.70;5.20;;;24.30;58.80;;;;;;5097910;28;20204;-65
2021/07/16 12:47:51;;;;;;;11.30;5.40;;;24.30;59.50;;;;;;5106381;28;20202;-65
2021/07/16 12:50:23;;;;;;;12.73;4.80;;;24.30;59.90;;;;;;5099000;28;20600;-66
2021/07/16 12:53:00;;;;;;;13.53;4.83;;;24.30;61.20;;;;;;5102796;28;20649;-63
2021/07/16 12:55:43;;;;;;;11.00;4.90;;;24.30;59.90;;;;;;5095724;28;20288;-64
2021/07/16 12:58:13;;;;;;;12.73;4.90;;;24.30;61.00;;;;;;5102132;28;20203;-65
2021/07/16 13:00:44;;;;;;;9.73;4.40;;;24.30;60.60;;;;;;5099551;28;20225;-64
2021/07/16 13:03:43;;;;;;;13.27;4.87;;;24.40;62.80;;;;;;5104596;28;20939;-65
2021/07/16 13:06:31;;;;;;;14.20;5.37;;;24.40;62.60;;;;;;5099407;28;20201;-64
2021/07/16 13:09:31;;;;;;;12.03;4.63;;;24.40;61.80;;;;;;5101674;28;20204;-66
2021/07/16 13:12:18;;;;;;;11.87;5.10;;;24.40;62.50;;;;;;5099610;28;20236;-66
2021/07/16 13:15:04;;;;;;;11.13;4.33;;;24.40;62.40;;;;;;5098893;28;20223;-67
2021/07/16 13:17:40;;;;;;;12.70;4.47;;;24.40;61.00;;;;;;5104572;28;20192;-67